Platzwetter Flugplatz Wels

Flugwetter Linz LOWL

[Quelle: ADDS]
METAR
LOWL 181550Z 30002KT CAVOK 14/12 Q1013 NOSIG =
LOWL 181115Z 1812/1912 09005KT CAVOK TX16/1815Z TN08/1904Z BECMG 1822/1901 3000 BR NSC TEMPO 1901/1909 0800 BCFG BKN004 PROB40 1903/1908 0100 FG VV001 BECMG 1908/1910 10010KT 9999 FEW020 SCT140
TAF
LOWL 181115Z 1812/1912 09005KT CAVOK TX16/1815Z TN08/1904Z BECMG 1822/1901 3000 BR NSC TEMPO 1901/1909 0800 BCFG BKN004 PROB40 1903/1908 0100 FG VV001 BECMG 1908/1910 10010KT 9999 FEW020 SCT140 =

Flugwetter Salzburg LOWS

[Quelle: ADDS]
METAR
LOWS 181550Z 31004KT 9999 FEW070 BKN250 17/12 Q1013 NOSIG =
LOWS 181115Z 1812/1912 15008KT 9999 FEW080 SCT300 TX20/1813Z TN10/1904Z TEMPO 1812/1820 33004KT BECMG 1908/1910 34005KT CAVOK
TAF
LOWS 181115Z 1812/1912 15008KT 9999 FEW080 SCT300 TX20/1813Z TN10/1904Z TEMPO 1812/1820 33004KT BECMG 1908/1910 34005KT CAVOK =

Wind - Verlauf

Windrichtung - Verlauf

Temperatur - Verlauf

Relative Luftfeuchtigkeit - Verlauf

Luftdruck - Verlauf

Cookies erleichtern die Bereitstellung unserer Dienste. Mit der Nutzung unserer Dienste erklären Sie sich damit einverstanden, dass wir Cookies verwenden.
Weitere Informationen Ok